West End, Illinois
Current Conditions -  °F | °C
As of 10:15 AM on Friday 19 Dec 2014 (Local Time) from KHSB Reporting Station
Overcast Overcast  
Wind Chill: 30°   Ceiling: 4000
Heat Index: 34°   Visibility: 10mi
Dew Point: 28°   Wind: 5mph
Humidity: 79%   Direction: 90°E
Pressure: 30.34"   Gusts: NA
Location:  37.8635°N, 88.7619°W
Report Text: KHSB 191615Z AUTO 09004KT 10SM OVC040 01/M02 A3034 RMK AO2 T00101022
Loading
Personal Weather Stations






























Interactive Weather Map New forecast layout! Learn more

10-Day Weather Forecast

Advertisements
Track Severe Weather on mobile